createdAt,value
2018-01-07T00:02:04.346Z,2.70
2018-01-07T00:04:34.287Z,2.70
2018-01-07T00:07:04.427Z,2.70
2018-01-07T00:09:33.672Z,2.70
2018-01-07T00:12:08.700Z,2.60
2018-01-07T00:14:38.163Z,2.60
2018-01-07T00:17:07.265Z,2.60
2018-01-07T00:19:36.418Z,2.40
2018-01-07T00:22:05.586Z,2.40
2018-01-07T00:24:34.695Z,2.20
2018-01-07T00:27:03.845Z,2.20
2018-01-07T00:29:33.005Z,2.20
2018-01-07T00:32:02.147Z,2.20
2018-01-07T00:34:31.463Z,2.20
2018-01-07T00:37:00.637Z,2.10
2018-01-07T00:39:29.787Z,2.20
2018-01-07T00:41:59.878Z,2.20
2018-01-07T00:44:29.106Z,2.10
2018-01-07T00:46:58.349Z,2.10
2018-01-07T00:49:27.557Z,2.10
2018-01-07T00:51:57.516Z,2.20
2018-01-07T00:54:27.618Z,2.10
2018-01-07T00:56:57.212Z,2.20
2018-01-07T00:59:26.372Z,2.10
2018-01-07T01:01:55.609Z,2.10
2018-01-07T01:04:24.850Z,2.10
2018-01-07T01:06:54.032Z,2.10
2018-01-07T01:09:23.213Z,2.10
2018-01-07T01:11:52.424Z,2.10
2018-01-07T01:14:21.634Z,2.10
2018-01-07T01:16:51.553Z,1.90
2018-01-07T01:19:21.362Z,1.90
2018-01-07T01:21:50.496Z,1.90
2018-01-07T01:24:19.696Z,1.80
2018-01-07T01:26:48.845Z,1.90
2018-01-07T01:29:17.954Z,1.90
2018-01-07T01:31:47.070Z,1.90
2018-01-07T01:34:17.113Z,1.90
2018-01-07T01:36:46.221Z,1.80
2018-01-07T01:39:15.358Z,1.80
2018-01-07T01:41:44.826Z,1.80
2018-01-07T01:44:13.946Z,1.80
2018-01-07T01:46:43.094Z,1.80
2018-01-07T01:49:26.358Z,1.80
2018-01-07T01:51:55.793Z,1.70
2018-01-07T01:54:24.995Z,1.80
2018-01-07T01:56:55.595Z,1.80
2018-01-07T01:59:25.099Z,1.70
2018-01-07T02:01:55.510Z,1.80
2018-01-07T02:04:24.712Z,1.80
2018-01-07T02:06:53.854Z,1.70
2018-01-07T02:09:22.991Z,1.80
2018-01-07T02:11:52.150Z,1.80
2018-01-07T02:14:21.272Z,1.80
2018-01-07T02:16:50.388Z,1.80
2018-01-07T02:19:19.998Z,1.80
2018-01-07T02:21:49.100Z,1.70
2018-01-07T02:24:18.974Z,1.80
2018-01-07T02:26:48.501Z,1.80
2018-01-07T02:29:17.603Z,1.70
2018-01-07T02:31:46.761Z,1.80
2018-01-07T02:34:15.947Z,1.70
2018-01-07T02:36:45.839Z,1.70
2018-01-07T02:39:15.006Z,1.70
2018-01-07T02:41:44.314Z,1.70
2018-01-07T02:44:13.443Z,1.80
2018-01-07T02:46:42.809Z,1.80
2018-01-07T02:49:12.425Z,1.70
2018-01-07T02:51:41.559Z,1.70
2018-01-07T02:54:10.709Z,1.60
2018-01-07T02:56:39.879Z,1.70
2018-01-07T02:59:09.764Z,1.60
2018-01-07T03:01:38.934Z,1.60
2018-01-07T03:04:08.186Z,1.60
2018-01-07T03:06:37.306Z,1.60
2018-01-07T03:09:06.408Z,1.50
2018-01-07T03:11:35.611Z,1.50
2018-01-07T03:14:04.805Z,1.50
2018-01-07T03:16:35.050Z,1.50
2018-01-07T03:19:04.885Z,1.50
2018-01-07T03:21:34.001Z,1.50
2018-01-07T03:24:03.156Z,1.60
2018-01-07T03:26:35.995Z,1.60
2018-01-07T03:29:05.188Z,1.50
2018-01-07T03:31:34.417Z,1.50
2018-01-07T03:34:03.625Z,1.50
2018-01-07T03:36:32.866Z,1.40
2018-01-07T03:39:02.840Z,1.50
2018-01-07T03:41:32.629Z,1.40
2018-01-07T03:44:02.533Z,1.50
2018-01-07T03:46:32.030Z,1.50
2018-01-07T03:49:01.619Z,1.50
2018-01-07T03:51:30.755Z,1.50
2018-01-07T03:53:59.871Z,1.50
2018-01-07T03:56:29.088Z,1.40
2018-01-07T03:58:58.278Z,1.50
2018-01-07T04:01:27.451Z,1.50
2018-01-07T04:03:57.379Z,1.40
2018-01-07T04:06:27.274Z,1.50
2018-01-07T04:08:56.452Z,1.40
2018-01-07T04:11:26.850Z,1.50
2018-01-07T04:13:56.818Z,1.40
2018-01-07T04:16:26.051Z,1.40
2018-01-07T04:18:55.650Z,1.40
2018-01-07T04:21:24.877Z,1.50
2018-01-07T04:23:54.047Z,1.40
2018-01-07T04:26:23.987Z,1.50
2018-01-07T04:28:53.105Z,1.40
2018-01-07T04:31:22.205Z,1.50
2018-01-07T04:33:51.349Z,1.50
2018-01-07T04:36:20.445Z,1.50
2018-01-07T04:38:49.540Z,1.60
2018-01-07T04:41:18.762Z,1.50
2018-01-07T04:43:47.903Z,1.40
2018-01-07T04:46:17.009Z,1.40
2018-01-07T04:48:46.191Z,1.30
2018-01-07T04:51:15.296Z,1.30
2018-01-07T04:53:44.446Z,1.40
2018-01-07T04:56:13.605Z,1.40
2018-01-07T04:58:42.710Z,1.50
2018-01-07T05:01:11.805Z,1.40
2018-01-07T05:03:41.486Z,1.50
2018-01-07T05:06:10.609Z,1.40
2018-01-07T05:08:39.701Z,1.40
2018-01-07T05:11:09.312Z,1.40
2018-01-07T05:13:38.408Z,1.40
2018-01-07T05:16:07.506Z,1.50
2018-01-07T05:18:37.498Z,1.40
2018-01-07T05:21:07.421Z,1.50
2018-01-07T05:23:36.533Z,1.40
2018-01-07T05:26:06.747Z,1.40
2018-01-07T05:28:35.877Z,1.30
2018-01-07T05:31:05.787Z,1.50
2018-01-07T05:33:36.322Z,1.40
2018-01-07T05:36:05.479Z,1.50
2018-01-07T05:38:34.634Z,1.50
2018-01-07T05:41:03.958Z,1.50
2018-01-07T05:43:33.097Z,1.50
2018-01-07T05:46:03.115Z,1.50
2018-01-07T05:48:33.086Z,1.50
2018-01-07T05:51:02.202Z,1.50
2018-01-07T05:53:31.302Z,1.50
2018-01-07T05:56:01.109Z,1.40
2018-01-07T05:58:30.208Z,1.50
2018-01-07T06:00:59.322Z,1.50
2018-01-07T06:03:28.727Z,1.40
2018-01-07T06:05:58.622Z,1.40
2018-01-07T06:08:27.773Z,1.40
2018-01-07T06:10:57.142Z,1.50
2018-01-07T06:13:26.293Z,1.40
2018-01-07T06:15:55.568Z,1.40
2018-01-07T06:18:25.252Z,1.40
2018-01-07T06:20:54.397Z,1.40
2018-01-07T06:23:23.550Z,1.40
2018-01-07T06:25:53.823Z,1.40
2018-01-07T06:28:22.952Z,1.40
2018-01-07T06:30:52.086Z,1.40
2018-01-07T06:33:21.336Z,1.50
2018-01-07T06:35:50.445Z,1.40
2018-01-07T06:38:19.581Z,1.50
2018-01-07T06:40:50.238Z,1.40
2018-01-07T06:43:19.330Z,1.40
2018-01-07T06:45:48.462Z,1.40
2018-01-07T06:48:18.160Z,1.40
2018-01-07T06:50:47.326Z,1.30
2018-01-07T06:53:17.252Z,1.40
2018-01-07T06:55:46.429Z,1.40
2018-01-07T06:58:15.564Z,1.40
2018-01-07T07:00:44.735Z,1.30
2018-01-07T07:03:14.594Z,1.20
2018-01-07T07:05:44.469Z,1.20
2018-01-07T07:08:13.647Z,1.20
2018-01-07T07:10:43.564Z,1.20
2018-01-07T07:13:13.472Z,1.30
2018-01-07T07:15:42.612Z,1.20
2018-01-07T07:18:12.521Z,1.30
2018-01-07T07:20:42.421Z,1.20
2018-01-07T07:23:11.545Z,1.20
2018-01-07T07:25:41.618Z,1.20
2018-01-07T07:28:10.750Z,1.20
2018-01-07T07:30:39.949Z,1.30
2018-01-07T07:33:09.126Z,1.30
2018-01-07T07:35:39.010Z,1.20
2018-01-07T07:38:08.162Z,1.20
2018-01-07T07:40:38.073Z,1.10
2018-01-07T07:43:07.215Z,1.10
2018-01-07T07:45:37.251Z,1.20
2018-01-07T07:48:07.366Z,1.20
2018-01-07T07:50:36.524Z,1.20
2018-01-07T07:53:05.693Z,1.20
2018-01-07T07:55:35.282Z,1.10
2018-01-07T07:58:05.167Z,1.20
2018-01-07T08:00:35.112Z,1.20
2018-01-07T08:03:04.405Z,1.20
2018-01-07T08:05:33.590Z,1.20
2018-01-07T08:08:02.758Z,1.20
2018-01-07T08:10:32.006Z,1.30
2018-01-07T08:13:01.944Z,1.30
2018-01-07T08:15:31.617Z,1.30
2018-01-07T08:18:00.857Z,1.30
2018-01-07T08:20:30.030Z,1.30
2018-01-07T08:22:59.392Z,1.40
2018-01-07T08:25:29.087Z,1.40
2018-01-07T08:27:59.091Z,1.40
2018-01-07T08:30:28.308Z,1.40
2018-01-07T08:32:57.529Z,1.50
2018-01-07T08:35:26.726Z,1.70
2018-01-07T08:37:55.912Z,1.80
2018-01-07T08:40:25.198Z,1.80
2018-01-07T08:42:54.325Z,2.00
2018-01-07T08:45:23.449Z,2.20
2018-01-07T08:47:53.800Z,3.30
2018-01-07T08:50:23.002Z,3.30
2018-01-07T08:52:52.154Z,4.20
2018-01-07T08:55:22.694Z,5.30
2018-01-07T08:57:51.876Z,5.30
2018-01-07T09:00:21.050Z,5.80
2018-01-07T09:02:50.292Z,6.60
2018-01-07T09:05:19.411Z,6.80
2018-01-07T09:07:48.511Z,7.10
2018-01-07T09:10:17.786Z,7.50
2018-01-07T09:12:46.923Z,8.20
2018-01-07T09:15:16.063Z,8.20
2018-01-07T09:17:45.464Z,8.30
2018-01-07T09:20:14.602Z,8.50
2018-01-07T09:22:44.520Z,8.60
2018-01-07T09:25:13.782Z,8.60
2018-01-07T09:27:42.913Z,8.50
2018-01-07T09:30:12.052Z,8.30
2018-01-07T09:32:41.982Z,5.90
2018-01-07T09:35:11.098Z,5.80
2018-01-07T09:37:40.198Z,5.20
2018-01-07T09:40:09.358Z,4.60
2018-01-07T09:42:38.471Z,4.10
2018-01-07T09:45:07.643Z,3.70
2018-01-07T09:47:37.927Z,3.10
2018-01-07T09:50:07.091Z,3.10
2018-01-07T09:52:37.023Z,2.90
2018-01-07T09:55:07.047Z,3.00
2018-01-07T09:57:36.905Z,2.90
2018-01-07T10:00:06.047Z,2.80
2018-01-07T10:02:35.197Z,2.80
2018-01-07T10:05:04.351Z,2.70
2018-01-07T10:07:33.455Z,2.70
2018-01-07T10:10:04.259Z,2.50
2018-01-07T10:12:34.305Z,2.50
2018-01-07T10:15:03.446Z,2.50
2018-01-07T10:17:32.877Z,2.50
2018-01-07T10:20:02.867Z,2.40
2018-01-07T10:22:32.769Z,2.40
2018-01-07T10:25:02.132Z,2.50
2018-01-07T10:27:31.406Z,2.40
2018-01-07T10:30:00.567Z,2.40
2018-01-07T10:32:29.898Z,2.40
2018-01-07T10:34:59.071Z,2.40
2018-01-07T10:37:28.969Z,2.40
2018-01-07T10:40:00.359Z,2.40
2018-01-07T10:42:29.533Z,2.40
2018-01-07T10:44:58.712Z,2.50
2018-01-07T10:47:28.671Z,2.60
2018-01-07T10:49:58.611Z,2.60
2018-01-07T10:52:29.667Z,2.70
2018-01-07T10:54:58.887Z,2.60
2018-01-07T10:57:28.048Z,2.70
2018-01-07T10:59:57.633Z,2.70
2018-01-07T11:02:32.311Z,2.60
2018-01-07T11:05:01.575Z,2.70
2018-01-07T11:07:31.489Z,2.60
2018-01-07T11:10:00.830Z,2.50
2018-01-07T11:12:30.164Z,2.50
2018-01-07T11:14:59.494Z,2.50
2018-01-07T11:17:28.707Z,2.50
2018-01-07T11:19:58.009Z,2.60
2018-01-07T11:22:27.167Z,2.70
2018-01-07T11:24:56.364Z,2.50
2018-01-07T11:27:26.426Z,2.70
2018-01-07T11:29:55.698Z,2.70
2018-01-07T11:32:25.005Z,2.60
2018-01-07T11:34:55.351Z,2.70
2018-01-07T11:37:24.651Z,2.80
2018-01-07T11:39:53.844Z,2.80
2018-01-07T11:42:24.440Z,2.70
2018-01-07T11:44:53.582Z,2.70
2018-01-07T11:47:22.738Z,2.70
2018-01-07T11:49:52.666Z,2.70
2018-01-07T11:52:21.839Z,2.60
2018-01-07T11:54:51.755Z,2.60
2018-01-07T11:57:20.888Z,2.60
2018-01-07T11:59:50.013Z,2.40
2018-01-07T12:02:19.316Z,2.40
2018-01-07T12:04:52.943Z,2.40
2018-01-07T12:07:27.671Z,2.50
2018-01-07T12:09:57.011Z,2.60
2018-01-07T12:12:29.503Z,2.70
2018-01-07T12:15:00.144Z,2.60
2018-01-07T12:17:31.939Z,2.70
2018-01-07T12:20:03.738Z,2.70
2018-01-07T12:22:39.236Z,2.50
2018-01-07T12:25:14.505Z,2.50
2018-01-07T12:27:46.685Z,2.40
2018-01-07T12:30:17.731Z,2.30
2018-01-07T12:32:49.798Z,2.30
2018-01-07T12:35:20.567Z,2.40
2018-01-07T12:37:55.468Z,2.60
2018-01-07T12:40:26.811Z,2.60
2018-01-07T12:43:00.626Z,2.60
2018-01-07T12:45:30.719Z,2.60
2018-01-07T12:47:59.896Z,2.60
2018-01-07T12:50:32.868Z,2.60
2018-01-07T12:53:03.781Z,2.60
2018-01-07T12:55:33.827Z,2.60
2018-01-07T12:58:03.264Z,2.50
2018-01-07T13:00:32.697Z,2.50
2018-01-07T13:03:02.061Z,2.50
2018-01-07T13:05:33.171Z,2.50
2018-01-07T13:08:04.565Z,2.60
2018-01-07T13:10:34.206Z,2.60
2018-01-07T13:13:06.165Z,2.60
2018-01-07T13:15:35.565Z,2.60
2018-01-07T13:18:04.836Z,2.50
2018-01-07T13:20:40.729Z,2.50
2018-01-07T13:23:13.672Z,2.50
2018-01-07T13:25:45.046Z,2.60
2018-01-07T13:28:14.232Z,2.50
2018-01-07T13:30:43.385Z,2.40
2018-01-07T13:33:13.359Z,2.50
2018-01-07T13:35:42.481Z,2.40
2018-01-07T13:38:11.581Z,2.40
2018-01-07T13:40:40.739Z,2.40
2018-01-07T13:43:10.680Z,2.30
2018-01-07T13:45:40.689Z,2.40
2018-01-07T13:48:14.317Z,2.40
2018-01-07T13:50:43.761Z,2.40
2018-01-07T13:53:13.436Z,2.50
2018-01-07T13:55:44.020Z,2.50
2018-01-07T13:58:13.382Z,2.50
2018-01-07T14:00:43.318Z,2.50
2018-01-07T14:03:12.974Z,2.50
2018-01-07T14:05:42.151Z,2.60
2018-01-07T14:08:11.865Z,2.50
2018-01-07T14:10:41.137Z,2.50
2018-01-07T14:13:10.394Z,2.50
2018-01-07T14:15:39.543Z,2.50
2018-01-07T14:18:09.260Z,2.40
2018-01-07T14:20:41.571Z,2.60
2018-01-07T14:23:14.582Z,2.50
2018-01-07T14:26:08.740Z,2.60
2018-01-07T14:28:38.877Z,2.60
2018-01-07T14:31:13.845Z,2.60
2018-01-07T14:33:43.374Z,2.60
2018-01-07T14:36:12.553Z,2.60
2018-01-07T14:38:41.835Z,2.60
2018-01-07T14:41:13.602Z,2.40
2018-01-07T14:43:42.770Z,2.40
2018-01-07T14:46:11.892Z,2.40
2018-01-07T14:48:41.086Z,2.30
2018-01-07T14:51:10.206Z,2.40
2018-01-07T14:53:39.358Z,2.30
2018-01-07T14:56:10.387Z,2.20
2018-01-07T14:58:39.553Z,2.20
2018-01-07T15:01:08.661Z,2.10
2018-01-07T15:03:37.810Z,2.20
2018-01-07T15:06:06.977Z,2.10
2018-01-07T15:08:36.118Z,2.10
2018-01-07T15:11:06.791Z,2.10
2018-01-07T15:13:35.898Z,2.10
2018-01-07T15:16:05.019Z,2.10
2018-01-07T15:18:34.339Z,2.00
2018-01-07T15:21:03.612Z,1.80
2018-01-07T15:23:32.763Z,1.80
2018-01-07T15:26:02.028Z,1.80
2018-01-07T15:28:31.326Z,1.80
2018-01-07T15:31:00.530Z,1.80
2018-01-07T15:33:30.658Z,1.70
2018-01-07T15:35:59.851Z,1.60
2018-01-07T15:38:29.082Z,1.60
2018-01-07T15:40:59.281Z,1.50
2018-01-07T15:43:28.674Z,1.50
2018-01-07T15:45:59.818Z,1.50
2018-01-07T15:48:30.824Z,1.60
2018-01-07T15:51:01.238Z,1.60
2018-01-07T15:53:31.301Z,1.60
2018-01-07T15:56:00.837Z,1.60
2018-01-07T15:58:30.142Z,1.50
2018-01-07T16:00:59.292Z,1.60
2018-01-07T16:03:29.568Z,1.50
2018-01-07T16:05:58.824Z,1.40
2018-01-07T16:08:28.320Z,1.40
2018-01-07T16:10:57.490Z,1.40
2018-01-07T16:13:26.850Z,1.30
2018-01-07T16:15:56.137Z,1.40
2018-01-07T16:18:25.786Z,1.40
2018-01-07T16:20:55.881Z,1.40
2018-01-07T16:23:26.393Z,1.30
2018-01-07T16:25:55.914Z,1.40
2018-01-07T16:28:25.578Z,1.30
2018-01-07T16:30:54.706Z,1.30
2018-01-07T16:33:24.738Z,1.30
2018-01-07T16:35:55.747Z,1.30
2018-01-07T16:38:25.402Z,1.30
2018-01-07T16:40:54.657Z,1.40
2018-01-07T16:43:23.971Z,1.30
2018-01-07T16:45:53.561Z,1.30
2018-01-07T16:48:22.705Z,1.30
2018-01-07T16:50:51.975Z,1.20
2018-01-07T16:53:21.102Z,1.10
2018-01-07T16:55:50.290Z,1.20
2018-01-07T16:58:19.547Z,1.20
2018-01-07T17:00:48.721Z,1.20
2018-01-07T17:03:17.837Z,1.20
2018-01-07T17:05:47.654Z,1.20
2018-01-07T17:08:17.027Z,1.30
2018-01-07T17:10:46.179Z,1.40
2018-01-07T17:13:15.630Z,1.30
2018-01-07T17:15:44.797Z,1.30
2018-01-07T17:18:14.766Z,1.30
2018-01-07T17:20:43.964Z,1.20
2018-01-07T17:23:13.066Z,1.20
2018-01-07T17:25:42.938Z,1.10
2018-01-07T17:28:12.774Z,1.00
2018-01-07T17:30:41.871Z,1.00
2018-01-07T17:33:10.994Z,1.00
2018-01-07T17:35:40.151Z,1.00
2018-01-07T17:38:10.029Z,1.00
2018-01-07T17:40:39.190Z,1.00
2018-01-07T17:43:09.148Z,1.00
2018-01-07T17:45:38.320Z,1.00
2018-01-07T17:48:08.288Z,1.10
2018-01-07T17:50:37.454Z,1.00
2018-01-07T17:53:07.537Z,1.10
2018-01-07T17:55:36.711Z,1.00
2018-01-07T17:58:06.753Z,0.90
2018-01-07T18:00:36.749Z,0.90
2018-01-07T18:03:05.998Z,0.90
2018-01-07T18:05:35.670Z,0.90
2018-01-07T18:08:04.883Z,0.90
2018-01-07T18:10:34.064Z,0.90
2018-01-07T18:13:03.302Z,0.90
2018-01-07T18:15:32.517Z,0.80
2018-01-07T18:18:01.673Z,0.80
2018-01-07T18:20:31.001Z,0.70
2018-01-07T18:23:00.300Z,0.60
2018-01-07T18:25:30.853Z,0.50
2018-01-07T18:28:00.948Z,0.60
2018-01-07T18:30:30.482Z,0.60
2018-01-07T18:32:59.820Z,0.60
2018-01-07T18:35:30.722Z,0.70
2018-01-07T18:37:59.982Z,0.70
2018-01-07T18:40:29.168Z,0.70
2018-01-07T18:42:58.563Z,0.60
2018-01-07T18:45:28.543Z,0.60
2018-01-07T18:47:57.721Z,0.60
2018-01-07T18:50:26.894Z,0.60
2018-01-07T18:52:56.576Z,0.60
2018-01-07T18:55:25.751Z,0.60
2018-01-07T18:57:55.159Z,0.60
2018-01-07T19:00:24.304Z,0.60
2018-01-07T19:02:53.409Z,0.70
2018-01-07T19:05:22.592Z,0.80
2018-01-07T19:07:52.483Z,0.80
2018-01-07T19:10:21.649Z,0.80
2018-01-07T19:12:50.862Z,0.80
2018-01-07T19:15:19.952Z,0.80
2018-01-07T19:17:49.822Z,0.70
2018-01-07T19:20:20.449Z,0.70
2018-01-07T19:22:49.594Z,0.70
2018-01-07T19:25:18.705Z,0.60
2018-01-07T19:27:47.908Z,0.60
2018-01-07T19:30:17.040Z,0.70
2018-01-07T19:32:46.203Z,0.70
2018-01-07T19:35:15.376Z,0.70
2018-01-07T19:37:44.498Z,0.70
2018-01-07T19:40:14.413Z,0.80
2018-01-07T19:42:44.347Z,0.80
2018-01-07T19:45:14.289Z,0.80
2018-01-07T19:47:43.433Z,0.80
2018-01-07T19:50:12.605Z,0.80
2018-01-07T19:52:42.481Z,0.80
2018-01-07T19:55:11.614Z,0.80
2018-01-07T19:57:41.222Z,0.60
2018-01-07T20:00:10.397Z,0.50
2018-01-07T20:02:39.581Z,0.50
2018-01-07T20:05:09.757Z,0.40
2018-01-07T20:07:38.863Z,0.30
2018-01-07T20:10:07.973Z,0.40
2018-01-07T20:12:37.238Z,0.50
2018-01-07T20:15:06.357Z,0.50
2018-01-07T20:17:35.481Z,0.60
2018-01-07T20:20:04.685Z,0.60
2018-01-07T20:22:33.891Z,0.60
2018-01-07T20:25:03.105Z,0.60
2018-01-07T20:27:33.346Z,0.70
2018-01-07T20:30:02.536Z,0.70
2018-01-07T20:32:31.805Z,0.60
2018-01-07T20:35:01.008Z,0.60
2018-01-07T20:37:30.185Z,0.60
2018-01-07T20:40:00.188Z,0.60
2018-01-07T20:42:29.868Z,0.60
2018-01-07T20:44:59.258Z,0.60
2018-01-07T20:47:29.365Z,0.60
2018-01-07T20:49:58.610Z,0.50
2018-01-07T20:52:27.800Z,0.50
2018-01-07T20:54:57.092Z,0.60
2018-01-07T20:57:27.102Z,0.50
2018-01-07T20:59:56.344Z,0.50
2018-01-07T21:02:26.365Z,0.60
2018-01-07T21:04:56.279Z,0.50
2018-01-07T21:07:25.559Z,0.60
2018-01-07T21:09:54.755Z,0.50
2018-01-07T21:12:24.046Z,0.50
2018-01-07T21:14:53.717Z,0.50
2018-01-07T21:17:22.868Z,0.20
2018-01-07T21:19:52.497Z,0.10
2018-01-07T21:22:22.569Z,0.00
2018-01-07T21:24:51.695Z,-0.10
2018-01-07T21:27:21.287Z,0.00
2018-01-07T21:29:50.466Z,-0.10
2018-01-07T21:32:20.467Z,-0.20
2018-01-07T21:34:50.658Z,-0.20
2018-01-07T21:37:22.452Z,-0.10
2018-01-07T21:39:55.149Z,-0.10
2018-01-07T21:42:24.876Z,-0.20
2018-01-07T21:44:54.930Z,-0.10
2018-01-07T21:47:24.956Z,-0.10
2018-01-07T21:49:54.136Z,-0.20
2018-01-07T21:52:23.271Z,-0.10
2018-01-07T21:54:52.437Z,-0.10
2018-01-07T21:57:22.378Z,-0.10
2018-01-07T22:03:36.147Z,0.00
2018-01-07T22:06:25.686Z,-0.10
2018-01-07T22:08:54.926Z,-0.10
2018-01-07T22:11:24.169Z,0.00
2018-01-07T22:13:53.498Z,0.10
2018-01-07T22:16:22.667Z,0.10
2018-01-07T22:18:51.819Z,0.10
2018-01-07T22:21:21.199Z,0.10
2018-01-07T22:23:50.377Z,0.10
2018-01-07T22:26:19.574Z,0.20
2018-01-07T22:28:48.947Z,0.10
2018-01-07T22:31:18.136Z,0.20
2018-01-07T22:33:47.322Z,0.20
2018-01-07T22:36:16.501Z,0.10
2018-01-07T22:38:45.653Z,0.20
2018-01-07T22:41:14.925Z,0.20
2018-01-07T22:43:44.157Z,0.20
2018-01-07T22:46:13.516Z,0.20
2018-01-07T22:48:42.676Z,0.20
2018-01-07T22:51:11.853Z,0.20
2018-01-07T22:53:41.026Z,0.20
2018-01-07T22:56:10.352Z,0.10
2018-01-07T22:58:40.667Z,0.20
2018-01-07T23:01:09.856Z,0.10
2018-01-07T23:03:39.039Z,0.20
2018-01-07T23:06:09.012Z,0.20
2018-01-07T23:08:38.156Z,0.30
2018-01-07T23:11:07.287Z,0.20
2018-01-07T23:13:37.269Z,0.10
2018-01-07T23:16:06.490Z,0.10
2018-01-07T23:18:37.204Z,0.00
2018-01-07T23:21:07.335Z,0.00
2018-01-07T23:23:36.565Z,0.00
2018-01-07T23:26:05.746Z,0.10
2018-01-07T23:28:35.166Z,0.20
2018-01-07T23:31:04.419Z,0.10
2018-01-07T23:33:33.649Z,0.10
2018-01-07T23:36:04.483Z,0.10
2018-01-07T23:38:33.680Z,0.00
2018-01-07T23:41:03.942Z,0.00
2018-01-07T23:43:33.698Z,0.00
2018-01-07T23:46:03.637Z,0.10
2018-01-07T23:48:32.954Z,0.10
2018-01-07T23:51:02.500Z,0.10
2018-01-07T23:53:32.309Z,0.10
2018-01-07T23:56:01.654Z,0.00
2018-01-07T23:58:31.702Z,0.10
